Time;durP1;ratioP1;P1;durP2;ratioP2;P2;SDS_P1;SDS_P2;PMS_P1;PMS_P2;Temp;Humidity;BMP_temperature;BMP_pressure;BME280_temperature;BME280_humidity;BME280_pressure;Samples;Min_cycle;Max_cycle;Signal;HPM_P1;HPM_P2
2021/04/08 00:02:13;;;;;;;2.33;0.95;;;7.70;42.80;;;;;;2365802;53;20946;-63
2021/04/08 00:04:40;;;;;;;3.97;1.33;;;7.70;42.80;;;;;;2347780;53;20912;-64
2021/04/08 00:07:15;;;;;;;4.53;1.10;;;7.70;42.80;;;;;;2617217;52;20966;-62
2021/04/08 00:09:43;;;;;;;2.78;1.27;;;7.70;42.80;;;;;;2366829;53;20966;-65
2021/04/08 00:12:10;;;;;;;2.80;0.93;;;7.70;42.90;;;;;;2608358;52;21824;-64
2021/04/08 00:14:37;;;;;;;4.32;1.58;;;7.60;42.80;;;;;;2350952;53;21041;-62
2021/04/08 00:17:03;;;;;;;5.40;1.60;;;7.60;42.80;;;;;;2353937;53;20945;-62
2021/04/08 00:19:29;;;;;;;2.97;1.10;;;7.60;42.80;;;;;;2366229;53;20969;-63
2021/04/08 00:21:57;;;;;;;3.72;1.60;;;7.60;42.80;;;;;;2618076;52;21457;-62
2021/04/08 00:24:23;;;;;;;3.30;1.25;;;7.60;42.90;;;;;;2364265;53;21030;-64
2021/04/08 00:26:50;;;;;;;3.55;1.42;;;7.60;42.90;;;;;;2352758;53;20937;-64
2021/04/08 00:29:17;;;;;;;4.70;1.60;;;7.60;43.00;;;;;;2366237;53;20962;-63
2021/04/08 00:31:45;;;;;;;3.37;1.85;;;7.60;43.00;;;;;;2334034;54;20941;-62
2021/04/08 00:34:13;;;;;;;4.22;1.67;;;7.60;42.90;;;;;;2329007;54;21039;-63
2021/04/08 00:36:40;;;;;;;4.60;1.62;;;7.70;42.90;;;;;;2343682;53;21056;-61
2021/04/08 00:39:06;;;;;;;4.20;1.42;;;7.70;43.00;;;;;;2343173;53;20901;-63
2021/04/08 00:41:33;;;;;;;4.00;1.37;;;7.60;43.10;;;;;;2343641;53;20936;-63
2021/04/08 00:44:00;;;;;;;2.67;1.10;;;7.60;43.10;;;;;;2343262;53;20976;-65
2021/04/08 00:46:26;;;;;;;3.70;1.20;;;7.70;43.30;;;;;;2589264;53;20994;-62
2021/04/08 00:48:52;;;;;;;4.15;1.30;;;7.60;43.30;;;;;;2342383;53;20964;-63
2021/04/08 00:51:20;;;;;;;2.50;1.00;;;7.70;43.40;;;;;;2589445;53;21409;-63
2021/04/08 00:53:46;;;;;;;2.55;1.00;;;7.70;43.50;;;;;;2323856;54;20948;-65
2021/04/08 00:56:13;;;;;;;2.10;0.90;;;7.70;43.50;;;;;;2609531;52;21027;-62
2021/04/08 00:58:39;;;;;;;3.70;1.20;;;7.60;43.50;;;;;;2370896;53;20962;-62
2021/04/08 01:01:06;;;;;;;4.30;1.40;;;7.60;43.50;;;;;;2593833;52;20919;-64
2021/04/08 01:03:32;;;;;;;2.58;1.00;;;7.60;43.60;;;;;;2371250;53;20890;-62
2021/04/08 01:05:59;;;;;;;3.00;1.20;;;7.60;43.60;;;;;;2623822;52;20938;-63
2021/04/08 01:08:25;;;;;;;2.70;1.10;;;7.60;43.70;;;;;;2341825;53;21300;-62
2021/04/08 01:10:52;;;;;;;3.20;0.90;;;7.60;43.70;;;;;;2366136;53;20985;-63
2021/04/08 01:13:19;;;;;;;2.97;1.12;;;7.60;43.80;;;;;;2624052;52;20985;-62
2021/04/08 01:15:47;;;;;;;3.70;1.35;;;7.50;43.70;;;;;;2590323;53;20949;-62
2021/04/08 01:18:50;;;;;;;3.28;1.10;;;7.50;43.80;;;;;;2343407;53;21737;-63
2021/04/08 01:21:24;;;;;;;4.32;1.10;;;7.50;43.90;;;;;;2357137;53;20997;-63
2021/04/08 01:25:28;;;;;;;4.28;1.17;;;7.50;43.90;;;;;;2339929;53;20967;-64
2021/04/08 01:28:18;;;;;;;4.35;1.20;;;7.40;43.90;;;;;;2568961;53;20973;-62
2021/04/08 01:30:48;;;;;;;2.45;1.02;;;7.40;43.80;;;;;;2343322;53;21003;-62
2021/04/08 01:33:24;;;;;;;4.60;1.10;;;7.30;43.80;;;;;;2587963;53;22090;-64
2021/04/08 01:35:51;;;;;;;3.70;1.40;;;7.30;43.90;;;;;;2335671;53;21017;-61
2021/04/08 01:38:22;;;;;;;2.60;1.20;;;7.30;43.90;;;;;;2590193;52;20881;-62
2021/04/08 01:40:48;;;;;;;3.45;1.20;;;7.30;44.00;;;;;;2347274;53;21735;-62
2021/04/08 01:43:16;;;;;;;3.30;1.20;;;7.20;44.00;;;;;;2589655;53;20960;-63
2021/04/08 01:45:43;;;;;;;2.40;1.10;;;7.20;44.10;;;;;;2342832;53;20954;-63
2021/04/08 01:48:09;;;;;;;2.33;0.88;;;7.20;44.10;;;;;;2590124;53;21102;-64
2021/04/08 01:50:36;;;;;;;3.17;1.10;;;7.10;44.10;;;;;;2343024;53;21021;-61
2021/04/08 01:53:03;;;;;;;3.67;1.20;;;7.10;44.20;;;;;;2343396;53;20937;-63
2021/04/08 01:55:33;;;;;;;2.17;1.00;;;7.10;44.30;;;;;;2589862;53;20978;-65
2021/04/08 01:58:01;;;;;;;4.03;1.30;;;7.10;44.30;;;;;;2343560;53;21000;-62
2021/04/08 02:00:27;;;;;;;4.57;1.17;;;7.10;44.40;;;;;;2343389;53;20936;-63
2021/04/08 02:02:55;;;;;;;3.40;1.20;;;7.10;44.50;;;;;;2347244;53;20948;-64
2021/04/08 02:05:22;;;;;;;3.65;1.40;;;7.10;44.50;;;;;;2344308;53;20929;-61
2021/04/08 02:07:50;;;;;;;2.70;1.00;;;7.10;44.60;;;;;;2590557;53;21024;-62
2021/04/08 02:10:16;;;;;;;4.82;1.40;;;7.00;44.60;;;;;;2346918;53;20987;-64
2021/04/08 02:12:47;;;;;;;3.87;1.20;;;7.00;44.60;;;;;;2348317;53;21080;-62
2021/04/08 02:15:16;;;;;;;2.85;1.17;;;7.00;44.70;;;;;;2357183;53;20921;-62
2021/04/08 02:17:43;;;;;;;2.62;1.15;;;7.00;45.30;;;;;;2347254;53;20968;-62
2021/04/08 02:20:14;;;;;;;3.87;1.08;;;6.90;44.70;;;;;;2366674;53;21008;-64
2021/04/08 02:22:51;;;;;;;3.28;1.02;;;7.00;44.90;;;;;;2596079;52;20973;-63
2021/04/08 02:25:18;;;;;;;4.53;1.30;;;6.90;44.90;;;;;;2348669;53;20897;-64
2021/04/08 02:27:45;;;;;;;4.00;1.10;;;6.90;44.90;;;;;;2615989;52;21000;-64
2021/04/08 02:30:13;;;;;;;2.45;0.90;;;6.90;44.90;;;;;;2354930;53;21073;-62
2021/04/08 02:32:40;;;;;;;3.40;1.40;;;6.90;45.00;;;;;;2607250;52;20938;-63
2021/04/08 02:35:10;;;;;;;3.87;1.25;;;6.90;45.00;;;;;;2347475;53;20901;-63
2021/04/08 02:37:36;;;;;;;3.10;1.00;;;6.90;45.10;;;;;;2366024;53;20900;-62
2021/04/08 02:40:07;;;;;;;2.50;1.08;;;6.90;45.00;;;;;;2349462;53;21492;-63
2021/04/08 02:42:33;;;;;;;2.70;1.12;;;6.90;45.10;;;;;;2601616;52;21399;-63
2021/04/08 02:45:00;;;;;;;2.42;1.12;;;6.90;45.10;;;;;;2587486;52;20950;-62
2021/04/08 02:47:27;;;;;;;2.95;1.05;;;6.90;45.20;;;;;;2598236;52;20978;-63
2021/04/08 02:49:53;;;;;;;3.58;1.25;;;6.90;45.80;;;;;;2356104;53;21687;-64
2021/04/08 02:52:21;;;;;;;3.37;1.27;;;6.80;45.10;;;;;;2362878;53;20970;-62
2021/04/08 02:54:48;;;;;;;4.03;1.52;;;6.90;45.30;;;;;;2602318;52;20934;-64
2021/04/08 02:57:44;;;;;;;4.40;1.15;;;6.80;45.30;;;;;;2598233;52;20916;-64
2021/04/08 03:00:11;;;;;;;3.53;1.20;;;6.80;45.40;;;;;;2356104;53;20981;-62
2021/04/08 03:02:38;;;;;;;2.72;1.15;;;6.80;45.30;;;;;;2602486;52;20953;-62
2021/04/08 03:05:07;;;;;;;3.53;1.30;;;6.80;45.30;;;;;;2347435;53;21024;-62
2021/04/08 03:07:39;;;;;;;4.82;1.00;;;6.80;45.40;;;;;;2570188;53;21031;-64
2021/04/08 03:10:07;;;;;;;3.37;1.50;;;6.80;45.40;;;;;;2612784;52;20917;-62
2021/04/08 03:12:33;;;;;;;3.22;1.10;;;6.80;45.50;;;;;;2614057;52;20958;-63
2021/04/08 03:15:00;;;;;;;2.37;1.10;;;6.80;45.40;;;;;;2599604;52;20941;-63
2021/04/08 03:17:26;;;;;;;2.80;1.05;;;6.80;45.50;;;;;;2366674;53;20919;-63
2021/04/08 03:19:53;;;;;;;3.00;1.00;;;6.80;45.50;;;;;;2618599;52;20961;-62
2021/04/08 03:22:20;;;;;;;5.15;1.25;;;6.70;45.50;;;;;;2618647;52;20972;-62
2021/04/08 03:24:47;;;;;;;2.15;0.80;;;6.70;45.60;;;;;;2617954;52;21092;-64
2021/04/08 03:27:14;;;;;;;3.50;1.20;;;6.70;45.60;;;;;;2356752;53;20958;-64
2021/04/08 03:29:43;;;;;;;3.33;1.20;;;6.70;45.70;;;;;;2609940;52;20921;-62
2021/04/08 03:32:09;;;;;;;2.40;0.85;;;6.70;45.70;;;;;;2618076;52;20936;-63
2021/04/08 03:34:41;;;;;;;2.60;1.00;;;6.70;45.70;;;;;;2618454;52;20966;-64
2021/04/08 03:37:08;;;;;;;4.07;1.05;;;6.70;45.70;;;;;;2618835;52;20953;-61
2021/04/08 03:39:34;;;;;;;2.65;1.05;;;6.70;45.70;;;;;;2618790;52;20985;-64
2021/04/08 03:42:01;;;;;;;3.45;1.30;;;6.70;45.70;;;;;;2356059;53;21046;-62
2021/04/08 03:44:27;;;;;;;3.62;1.37;;;6.70;45.70;;;;;;2600085;52;20954;-63
2021/04/08 03:46:55;;;;;;;2.53;1.10;;;6.70;45.70;;;;;;2618122;52;20972;-62
2021/04/08 03:49:21;;;;;;;3.28;1.10;;;6.70;45.80;;;;;;2618472;52;20945;-62
2021/04/08 03:51:48;;;;;;;3.33;1.40;;;6.70;45.80;;;;;;2618365;52;21470;-64
2021/04/08 03:54:15;;;;;;;3.45;1.12;;;6.70;45.80;;;;;;2366592;53;20906;-64
2021/04/08 03:56:45;;;;;;;3.72;1.30;;;6.60;45.80;;;;;;2364710;53;20973;-63
2021/04/08 03:59:12;;;;;;;2.83;1.10;;;6.70;45.90;;;;;;2347196;53;21746;-61
2021/04/08 04:01:38;;;;;;;2.80;1.20;;;6.70;45.80;;;;;;2612923;52;20989;-64
2021/04/08 04:04:05;;;;;;;3.87;1.42;;;6.60;45.80;;;;;;2366875;53;20953;-61
2021/04/08 04:06:34;;;;;;;3.62;1.25;;;6.60;45.80;;;;;;2608875;52;20919;-64
2021/04/08 04:09:01;;;;;;;2.65;1.00;;;6.60;45.80;;;;;;2349622;53;21005;-62
2021/04/08 04:11:29;;;;;;;2.85;1.02;;;6.60;45.80;;;;;;2367187;53;20933;-62
2021/04/08 04:13:55;;;;;;;2.42;0.90;;;6.60;45.80;;;;;;2366366;53;20905;-63
2021/04/08 04:16:22;;;;;;;2.85;1.00;;;6.60;45.80;;;;;;2617181;52;20957;-62
2021/04/08 04:18:49;;;;;;;2.45;0.93;;;6.60;45.80;;;;;;2592720;52;21028;-61
2021/04/08 04:21:15;;;;;;;2.80;1.00;;;6.60;45.90;;;;;;2595263;52;21048;-64
2021/04/08 04:23:42;;;;;;;2.40;0.80;;;6.40;45.70;;;;;;2366973;53;20922;-64
2021/04/08 04:26:12;;;;;;;2.70;0.90;;;6.60;45.90;;;;;;2617989;52;20910;-63
2021/04/08 04:28:39;;;;;;;2.12;0.90;;;6.60;45.90;;;;;;2366987;53;21504;-63
2021/04/08 04:31:08;;;;;;;4.68;1.48;;;6.50;45.80;;;;;;2594782;52;20980;-63
2021/04/08 04:33:37;;;;;;;4.22;1.60;;;6.50;45.90;;;;;;2367244;53;20897;-65
2021/04/08 04:36:06;;;;;;;4.53;2.40;;;6.50;45.90;;;;;;2618812;52;20901;-62
2021/04/08 04:38:32;;;;;;;3.03;1.45;;;6.50;45.90;;;;;;2595170;52;20878;-62
2021/04/08 04:40:59;;;;;;;2.90;1.30;;;6.50;46.00;;;;;;2618790;52;20925;-62
2021/04/08 04:43:25;;;;;;;4.30;1.15;;;6.50;46.50;;;;;;2367107;53;20934;-65
2021/04/08 04:45:52;;;;;;;3.58;1.20;;;6.60;46.00;;;;;;2358589;53;20922;-62
2021/04/08 04:48:18;;;;;;;3.33;1.08;;;6.60;46.00;;;;;;2358925;53;20921;-62
2021/04/08 04:50:45;;;;;;;2.80;0.85;;;6.60;46.50;;;;;;2367271;53;20893;-63
2021/04/08 04:53:11;;;;;;;2.83;1.20;;;6.60;46.00;;;;;;2367088;53;21386;-64
2021/04/08 04:55:37;;;;;;;3.10;1.05;;;6.50;45.90;;;;;;2589655;53;20953;-65
2021/04/08 04:58:03;;;;;;;4.35;1.50;;;6.50;45.90;;;;;;2590772;53;21831;-62
2021/04/08 05:00:30;;;;;;;3.28;1.20;;;6.50;45.90;;;;;;2590097;53;21461;-62
2021/04/08 05:02:57;;;;;;;3.47;1.37;;;6.50;45.90;;;;;;2347012;53;20993;-64
2021/04/08 05:05:25;;;;;;;4.03;1.62;;;6.60;46.00;;;;;;2349224;53;21020;-62
2021/04/08 05:07:52;;;;;;;3.05;1.15;;;6.60;46.00;;;;;;2343780;54;21003;-62
2021/04/08 05:10:19;;;;;;;3.85;1.27;;;6.60;46.10;;;;;;2342668;54;20976;-61
2021/04/08 05:12:45;;;;;;;3.65;1.40;;;6.60;46.10;;;;;;2344021;54;21102;-64
2021/04/08 05:15:12;;;;;;;5.07;1.20;;;6.60;46.20;;;;;;2344027;54;20972;-64
2021/04/08 05:17:38;;;;;;;5.57;1.45;;;6.60;46.20;;;;;;2590594;53;20928;-62
2021/04/08 05:20:07;;;;;;;3.92;1.25;;;6.60;46.20;;;;;;2346061;53;20932;-63
2021/04/08 05:22:33;;;;;;;3.70;1.10;;;6.60;46.20;;;;;;2351264;53;20964;-63
2021/04/08 05:25:00;;;;;;;2.62;1.05;;;6.60;46.20;;;;;;2589505;52;20992;-64
2021/04/08 05:27:26;;;;;;;2.40;1.02;;;6.60;46.20;;;;;;2326474;54;21063;-62
2021/04/08 05:29:52;;;;;;;2.42;0.93;;;6.60;46.20;;;;;;2328497;54;20946;-64
2021/04/08 05:32:19;;;;;;;3.33;1.00;;;6.60;46.20;;;;;;2334388;54;21016;-61
2021/04/08 05:34:46;;;;;;;2.40;0.98;;;6.60;46.30;;;;;;2332722;53;20935;-63
2021/04/08 05:37:12;;;;;;;2.08;0.85;;;6.60;46.30;;;;;;2348909;54;20957;-61
2021/04/08 05:39:39;;;;;;;5.07;1.37;;;6.60;46.30;;;;;;2312659;55;21010;-62
2021/04/08 05:42:07;;;;;;;2.50;1.00;;;6.60;46.30;;;;;;2335526;54;20963;-62
2021/04/08 05:44:33;;;;;;;2.35;0.95;;;6.60;46.30;;;;;;2338675;54;21008;-65
2021/04/08 05:46:59;;;;;;;2.80;1.00;;;6.70;46.40;;;;;;2323643;54;20954;-61
2021/04/08 05:49:28;;;;;;;3.30;1.00;;;6.70;46.40;;;;;;2579223;52;20905;-63
2021/04/08 05:51:54;;;;;;;2.60;0.90;;;6.70;46.50;;;;;;2341352;53;21019;-61
2021/04/08 05:54:20;;;;;;;3.35;1.10;;;6.70;46.50;;;;;;2356881;53;20902;-64
2021/04/08 05:56:47;;;;;;;2.72;1.30;;;6.70;46.50;;;;;;2348028;53;20904;-62
2021/04/08 05:59:13;;;;;;;2.40;1.00;;;6.70;46.50;;;;;;2366494;53;20905;-64
2021/04/08 06:01:39;;;;;;;2.33;1.00;;;6.80;46.60;;;;;;2367028;53;20905;-65
2021/04/08 06:04:07;;;;;;;4.10;1.10;;;6.80;46.70;;;;;;2366287;53;20897;-64
2021/04/08 06:06:34;;;;;;;2.72;0.85;;;6.80;46.70;;;;;;2351989;53;20977;-61
2021/04/08 06:09:00;;;;;;;2.33;0.80;;;6.80;46.70;;;;;;2356270;53;21030;-63
2021/04/08 06:11:27;;;;;;;3.15;1.35;;;6.90;46.80;;;;;;2609238;52;20953;-63
2021/04/08 06:13:53;;;;;;;3.03;1.17;;;7.00;46.90;;;;;;2355027;53;21388;-62
2021/04/08 06:16:20;;;;;;;2.95;0.93;;;7.00;46.90;;;;;;2363054;53;20882;-62
2021/04/08 06:18:47;;;;;;;3.05;1.20;;;7.00;46.90;;;;;;2618645;52;20901;-63
2021/04/08 06:21:14;;;;;;;2.47;0.85;;;7.10;46.90;;;;;;2366814;53;20956;-64
2021/04/08 06:23:40;;;;;;;1.98;0.70;;;7.20;46.90;;;;;;2357657;53;21533;-64
2021/04/08 06:26:08;;;;;;;1.92;0.82;;;7.20;47.00;;;;;;2356462;53;20982;-64
2021/04/08 06:28:37;;;;;;;2.42;0.90;;;7.30;47.20;;;;;;2590415;53;20956;-63
2021/04/08 06:31:03;;;;;;;2.60;0.98;;;7.40;47.30;;;;;;2364920;53;21258;-64
2021/04/08 06:33:30;;;;;;;3.08;0.80;;;7.50;47.30;;;;;;2368276;53;21437;-63
2021/04/08 06:35:57;;;;;;;3.03;1.05;;;7.60;47.30;;;;;;2589698;53;20953;-63
2021/04/08 06:38:23;;;;;;;3.08;1.20;;;7.60;47.10;;;;;;2360457;53;20983;-64
2021/04/08 06:40:51;;;;;;;6.00;1.15;;;7.80;47.20;;;;;;2590792;52;20970;-63
2021/04/08 06:43:17;;;;;;;3.12;1.27;;;7.80;47.00;;;;;;2361521;53;22311;-63
2021/04/08 06:45:47;;;;;;;2.83;1.02;;;7.90;46.90;;;;;;2348635;53;20922;-65
2021/04/08 06:48:22;;;;;;;4.00;1.40;;;8.00;46.80;;;;;;2593908;52;21471;-63
2021/04/08 06:50:50;;;;;;;2.78;1.20;;;8.10;46.60;;;;;;2345901;53;20944;-64
2021/04/08 06:53:17;;;;;;;4.30;1.60;;;8.10;46.50;;;;;;2322991;55;20980;-65
2021/04/08 06:55:43;;;;;;;7.90;1.65;;;8.20;46.40;;;;;;2568767;53;20962;-62
2021/04/08 06:58:09;;;;;;;3.62;1.45;;;8.30;46.30;;;;;;2579346;53;20937;-62
2021/04/08 07:00:36;;;;;;;6.55;1.90;;;8.30;46.20;;;;;;2342920;54;21066;-63
2021/04/08 07:03:04;;;;;;;3.65;1.50;;;8.40;46.20;;;;;;2326133;54;20965;-64
2021/04/08 07:05:30;;;;;;;3.37;1.50;;;8.50;46.30;;;;;;2326642;53;21045;-62
2021/04/08 07:07:57;;;;;;;5.82;1.65;;;8.50;46.30;;;;;;2589078;52;20948;-62
2021/04/08 07:10:26;;;;;;;3.72;1.30;;;8.60;46.30;;;;;;2356523;53;21010;-61
2021/04/08 07:12:55;;;;;;;5.30;1.42;;;8.60;46.20;;;;;;2336295;53;20960;-62
2021/04/08 07:15:22;;;;;;;4.12;1.60;;;8.70;45.90;;;;;;2589591;53;21452;-61
2021/04/08 07:17:51;;;;;;;3.40;1.48;;;8.70;45.90;;;;;;2588817;53;20973;-62
2021/04/08 07:20:18;;;;;;;4.65;2.00;;;8.80;45.90;;;;;;2328874;54;20993;-64
2021/04/08 07:22:44;;;;;;;4.40;1.62;;;8.90;45.90;;;;;;2342922;54;20984;-64
2021/04/08 07:25:22;;;;;;;4.15;1.77;;;8.90;45.80;;;;;;2568175;53;20931;-62
2021/04/08 07:27:52;;;;;;;3.92;1.67;;;9.10;45.50;;;;;;2343760;53;20964;-63
2021/04/08 07:30:18;;;;;;;4.28;1.37;;;9.10;45.40;;;;;;2332094;54;20977;-65
2021/04/08 07:32:57;;;;;;;3.83;1.55;;;9.20;45.60;;;;;;2355516;53;20967;-65
2021/04/08 07:35:25;;;;;;;4.03;1.80;;;9.30;45.40;;;;;;2346965;53;21009;-65
2021/04/08 07:37:55;;;;;;;4.20;1.52;;;9.40;45.40;;;;;;2339072;53;21460;-62
2021/04/08 07:40:24;;;;;;;5.57;1.80;;;9.40;45.20;;;;;;2317097;54;21032;-65
2021/04/08 07:42:50;;;;;;;4.93;1.73;;;9.50;45.10;;;;;;2595971;52;21564;-62
2021/04/08 07:45:33;;;;;;;4.28;1.40;;;9.50;44.50;;;;;;2332509;54;21701;-63
2021/04/08 07:48:02;;;;;;;4.90;1.40;;;9.50;43.90;;;;;;2332486;54;20951;-62
2021/04/08 07:50:29;;;;;;;4.53;1.73;;;9.50;44.00;;;;;;2333634;54;21077;-64
2021/04/08 07:52:57;;;;;;;5.97;1.58;;;9.50;44.00;;;;;;2554134;53;21051;-64
2021/04/08 07:55:57;;;;;;;5.03;1.60;;;9.50;44.10;;;;;;2589979;53;20956;-64
2021/04/08 07:58:26;;;;;;;3.03;1.37;;;9.60;43.60;;;;;;2345987;55;20949;-62
2021/04/08 08:00:53;;;;;;;3.83;1.35;;;9.70;44.00;;;;;;2590428;52;20972;-64
2021/04/08 08:03:34;;;;;;;3.97;1.60;;;9.60;44.00;;;;;;2344196;54;20984;-64
2021/04/08 08:06:01;;;;;;;3.53;1.37;;;9.60;43.70;;;;;;2344627;54;21710;-65
2021/04/08 08:08:43;;;;;;;3.37;1.25;;;9.70;43.70;;;;;;2591240;52;21769;-65
2021/04/08 08:11:10;;;;;;;3.65;1.37;;;9.70;43.40;;;;;;2343908;54;21008;-63
2021/04/08 08:13:55;;;;;;;8.73;1.50;;;9.70;43.90;;;;;;2344137;53;21016;-62
2021/04/08 08:16:23;;;;;;;2.90;1.30;;;9.80;44.30;;;;;;2591219;52;21022;-62
2021/04/08 08:18:49;;;;;;;3.12;1.25;;;9.90;44.30;;;;;;2346722;54;20935;-64
2021/04/08 08:21:29;;;;;;;3.60;1.30;;;10.10;43.80;;;;;;2339548;53;21042;-64
2021/04/08 08:23:57;;;;;;;4.28;1.40;;;10.20;43.40;;;;;;2590257;52;21052;-63
2021/04/08 08:26:52;;;;;;;4.00;1.50;;;10.40;43.70;;;;;;2590997;52;20941;-65
2021/04/08 08:29:20;;;;;;;3.95;1.33;;;10.60;43.10;;;;;;2362614;53;20929;-62
2021/04/08 08:31:59;;;;;;;4.12;1.50;;;10.80;43.70;;;;;;2366520;53;21001;-64
2021/04/08 08:34:39;;;;;;;5.00;1.80;;;11.00;43.70;;;;;;2367159;53;20945;-63
2021/04/08 08:37:08;;;;;;;2.85;1.27;;;11.20;43.10;;;;;;2367715;53;20976;-63
2021/04/08 08:39:45;;;;;;;3.70;1.40;;;11.30;43.10;;;;;;2618402;52;20925;-63
2021/04/08 08:42:13;;;;;;;5.20;1.40;;;11.40;43.00;;;;;;2366308;53;20925;-63
2021/04/08 08:44:39;;;;;;;4.18;1.25;;;11.50;43.00;;;;;;2617944;52;20913;-64
2021/04/08 08:47:16;;;;;;;4.55;1.70;;;11.60;42.90;;;;;;2367683;53;21013;-64
2021/04/08 08:49:47;;;;;;;3.37;1.58;;;11.80;42.20;;;;;;2362607;53;20898;-64
2021/04/08 08:52:18;;;;;;;5.75;1.95;;;11.80;42.00;;;;;;2350240;53;21454;-63
2021/04/08 08:54:45;;;;;;;5.25;2.00;;;11.80;41.30;;;;;;2362049;53;21029;-64
2021/04/08 08:57:11;;;;;;;3.58;1.60;;;11.80;41.40;;;;;;2598305;52;20937;-65
2021/04/08 08:59:38;;;;;;;4.00;1.35;;;11.90;41.60;;;;;;2617405;52;20945;-63
2021/04/08 09:02:04;;;;;;;5.07;1.62;;;11.90;41.90;;;;;;2356511;53;21004;-65
2021/04/08 09:04:32;;;;;;;3.83;1.60;;;11.90;42.00;;;;;;2621792;52;20886;-65
2021/04/08 09:07:00;;;;;;;4.65;1.50;;;12.00;42.00;;;;;;2599737;52;21014;-62
2021/04/08 09:09:27;;;;;;;3.53;1.55;;;12.10;42.20;;;;;;2362492;53;20981;-63
2021/04/08 09:11:54;;;;;;;2.83;1.20;;;12.20;42.20;;;;;;2343041;54;21419;-62
2021/04/08 09:14:23;;;;;;;4.72;1.90;;;12.30;42.30;;;;;;2602257;52;20966;-64
2021/04/08 09:16:51;;;;;;;4.50;1.60;;;12.50;42.10;;;;;;2369550;53;20877;-64
2021/04/08 09:19:33;;;;;;;6.15;1.75;;;12.60;42.20;;;;;;2367417;53;21067;-69
2021/04/08 09:22:05;;;;;;;3.87;1.87;;;12.80;41.50;;;;;;2356132;53;20977;-64
2021/04/08 09:24:44;;;;;;;4.68;1.60;;;12.90;41.60;;;;;;2595913;52;20978;-63
2021/04/08 09:27:11;;;;;;;4.40;1.83;;;13.00;41.10;;;;;;2354646;53;20933;-64
2021/04/08 09:29:45;;;;;;;6.57;1.90;;;13.10;41.60;;;;;;2367057;53;20934;-62
2021/04/08 09:32:28;;;;;;;3.95;1.55;;;13.30;41.50;;;;;;2359417;53;21613;-65
2021/04/08 09:35:14;;;;;;;3.10;1.25;;;13.40;41.30;;;;;;2361531;53;21009;-63
2021/04/08 09:38:14;;;;;;;5.37;2.17;;;13.60;41.40;;;;;;2493759;52;1374900;-65
2021/04/08 09:40:49;;;;;;;3.05;1.42;;;13.80;41.10;;;;;;2364036;53;21018;-65
2021/04/08 09:43:20;;;;;;;3.72;1.80;;;13.90;41.50;;;;;;2356197;53;21352;-65
2021/04/08 09:46:01;;;;;;;3.20;1.60;;;14.10;41.70;;;;;;2366503;53;20980;-65
2021/04/08 09:48:46;;;;;;;5.05;2.00;;;14.30;41.30;;;;;;2344844;54;20943;-63
2021/04/08 09:51:38;;;;;;;3.35;1.50;;;14.40;40.80;;;;;;2360184;53;20941;-62
2021/04/08 09:54:14;;;;;;;3.28;1.55;;;14.50;40.70;;;;;;2595622;52;20990;-64
2021/04/08 09:56:53;;;;;;;4.80;1.58;;;14.70;40.80;;;;;;2367445;53;20989;-64
2021/04/08 09:59:19;;;;;;;6.70;1.80;;;14.80;41.00;;;;;;2366439;53;20973;-65
2021/04/08 10:01:55;;;;;;;4.03;1.73;;;14.90;41.20;;;;;;2618946;52;20926;-63
2021/04/08 10:04:25;;;;;;;4.43;1.60;;;15.00;40.50;;;;;;2366567;53;20922;-64
2021/04/08 10:07:05;;;;;;;4.90;1.80;;;15.20;41.10;;;;;;2367406;53;20889;-63
2021/04/08 10:09:34;;;;;;;6.70;2.70;;;15.30;40.80;;;;;;2370860;53;21268;-64
2021/04/08 10:12:01;;;;;;;4.30;2.00;;;15.50;41.80;;;;;;2370260;53;20898;-66
2021/04/08 10:14:31;;;;;;;5.25;2.22;;;15.70;41.90;;;;;;2618411;52;20894;-65
2021/04/08 10:17:08;;;;;;;4.20;1.80;;;15.90;40.60;;;;;;2615122;52;21070;-65
2021/04/08 10:19:47;;;;;;;3.72;1.48;;;16.00;40.20;;;;;;2354350;53;20985;-63
2021/04/08 10:22:15;;;;;;;3.37;1.40;;;16.10;40.10;;;;;;2353237;53;20966;-64
2021/04/08 10:24:43;;;;;;;5.30;1.60;;;16.20;40.40;;;;;;2353725;53;20952;-64
2021/04/08 10:27:18;;;;;;;3.40;1.30;;;16.20;39.80;;;;;;2368662;53;21060;-64
2021/04/08 10:29:45;;;;;;;3.78;1.50;;;16.30;39.90;;;;;;2366681;53;20985;-64
2021/04/08 10:32:11;;;;;;;3.92;1.30;;;16.40;39.80;;;;;;2364827;53;21031;-64
2021/04/08 10:34:40;;;;;;;4.57;1.65;;;16.50;39.70;;;;;;2346036;53;21104;-64
2021/04/08 10:37:07;;;;;;;4.22;1.25;;;16.40;39.10;;;;;;2329042;54;20987;-64
2021/04/08 10:39:38;;;;;;;2.87;1.33;;;16.50;39.10;;;;;;2575300;53;20960;-64
2021/04/08 10:42:13;;;;;;;3.67;1.60;;;16.40;39.00;;;;;;2344359;53;21018;-63
2021/04/08 10:44:51;;;;;;;4.90;1.40;;;16.50;38.40;;;;;;2324045;55;21011;-64
2021/04/08 10:47:23;;;;;;;3.28;1.27;;;16.50;38.20;;;;;;2340920;53;20915;-64
2021/04/08 10:49:57;;;;;;;3.80;1.60;;;16.50;38.30;;;;;;2588536;52;20945;-64
2021/04/08 10:52:27;;;;;;;4.20;1.50;;;16.50;38.20;;;;;;2344504;54;21535;-63
2021/04/08 10:54:56;;;;;;;5.25;1.40;;;16.50;38.30;;;;;;2344131;54;20913;-63
2021/04/08 10:57:25;;;;;;;4.87;1.85;;;16.50;38.50;;;;;;2344192;54;20996;-63
2021/04/08 10:59:52;;;;;;;4.65;1.73;;;16.50;38.30;;;;;;2590766;52;20921;-64
2021/04/08 11:03:01;;;;;;;3.60;1.77;;;16.60;38.40;;;;;;2343391;54;21721;-64
2021/04/08 11:05:27;;;;;;;6.57;1.70;;;16.70;37.50;;;;;;2343486;54;20945;-63
2021/04/08 11:07:57;;;;;;;4.07;1.62;;;16.80;38.90;;;;;;2344111;54;20913;-64
2021/04/08 11:10:32;;;;;;;4.37;1.55;;;16.90;38.70;;;;;;2586592;52;20931;-64
2021/04/08 11:12:59;;;;;;;2.70;1.35;;;16.90;37.60;;;;;;2590446;52;20928;-64
2021/04/08 11:15:27;;;;;;;4.28;1.55;;;16.90;37.30;;;;;;2591198;52;21430;-63
2021/04/08 11:19:20;;;;;;;3.50;1.37;;;16.80;36.80;;;;;;2344381;54;20972;-63
2021/04/08 11:21:47;;;;;;;3.60;1.42;;;16.70;36.40;;;;;;2346761;54;20889;-64
2021/04/08 11:24:14;;;;;;;4.55;1.60;;;16.60;36.70;;;;;;2350712;54;20938;-64
2021/04/08 11:26:48;;;;;;;3.50;1.30;;;16.50;36.40;;;;;;2619368;52;20989;-64
2021/04/08 11:29:25;;;;;;;4.07;1.35;;;16.40;35.70;;;;;;2619264;52;21056;-64
2021/04/08 11:32:08;;;;;;;5.15;1.50;;;16.30;35.50;;;;;;2367318;53;20913;-63
2021/04/08 11:34:48;;;;;;;3.47;1.30;;;16.30;35.60;;;;;;2595454;52;21356;-63
2021/04/08 11:37:17;;;;;;;4.70;2.00;;;16.10;35.40;;;;;;2618956;52;20925;-64
2021/04/08 11:39:45;;;;;;;4.85;1.77;;;16.10;35.70;;;;;;2595110;52;20957;-63
2021/04/08 11:42:23;;;;;;;6.07;2.08;;;16.00;35.70;;;;;;2350626;53;20934;-63
2021/04/08 11:44:51;;;;;;;4.68;1.65;;;16.00;35.20;;;;;;2583748;53;20934;-64
2021/04/08 11:47:19;;;;;;;3.83;1.92;;;15.90;35.10;;;;;;2582193;52;20960;-64
2021/04/08 11:49:49;;;;;;;4.50;2.08;;;15.80;34.90;;;;;;2618819;52;21677;-64
2021/04/08 11:52:20;;;;;;;4.50;2.00;;;15.80;34.80;;;;;;2602707;52;21829;-63
2021/04/08 11:55:14;;;;;;;3.50;1.40;;;15.60;34.50;;;;;;2362352;53;20997;-63
2021/04/08 11:57:54;;;;;;;4.47;1.70;;;15.70;35.00;;;;;;2604202;52;20987;-64
2021/04/08 12:00:25;;;;;;;5.53;1.80;;;15.90;35.90;;;;;;2564785;53;21006;-63
2021/04/08 12:02:52;;;;;;;3.65;1.50;;;16.20;37.00;;;;;;2366955;53;20970;-64
2021/04/08 12:05:19;;;;;;;3.33;1.50;;;16.50;37.60;;;;;;2357725;53;20910;-64
2021/04/08 12:07:48;;;;;;;4.18;1.90;;;16.70;36.80;;;;;;2618501;52;21865;-64
2021/04/08 12:10:31;;;;;;;7.62;2.17;;;17.00;35.90;;;;;;2367396;53;20993;-64
2021/04/08 12:13:00;;;;;;;5.07;1.80;;;17.10;34.20;;;;;;2618728;52;21521;-64
2021/04/08 12:15:41;;;;;;;4.20;1.75;;;17.20;34.80;;;;;;2619029;52;21387;-64
2021/04/08 12:18:21;;;;;;;3.20;1.52;;;17.20;34.00;;;;;;2619230;52;21333;-64
2021/04/08 12:20:48;;;;;;;3.00;1.17;;;17.20;34.30;;;;;;2362362;53;21025;-64
2021/04/08 12:23:19;;;;;;;3.62;1.40;;;17.20;34.30;;;;;;2351161;53;21872;-64
2021/04/08 12:25:49;;;;;;;2.62;1.30;;;17.20;34.00;;;;;;2367565;53;21726;-64
2021/04/08 12:28:17;;;;;;;3.22;1.20;;;17.20;33.90;;;;;;2603419;52;20954;-63
2021/04/08 12:30:56;;;;;;;2.80;1.25;;;17.10;33.90;;;;;;2351003;53;20957;-63
2021/04/08 12:33:23;;;;;;;4.65;1.30;;;17.20;33.80;;;;;;2621228;52;20878;-64
2021/04/08 12:35:51;;;;;;;3.47;1.50;;;17.10;33.70;;;;;;2352613;53;21020;-64
2021/04/08 12:38:18;;;;;;;3.03;1.50;;;17.00;33.60;;;;;;2598672;52;21034;-64
2021/04/08 12:40:45;;;;;;;4.20;1.30;;;17.00;33.70;;;;;;2355901;53;20949;-63
2021/04/08 12:43:12;;;;;;;3.08;1.40;;;17.00;33.80;;;;;;2359388;53;20926;-64
2021/04/08 12:45:38;;;;;;;6.82;1.40;;;17.00;33.50;;;;;;2352099;53;21026;-63
2021/04/08 12:48:05;;;;;;;3.40;1.50;;;17.00;33.90;;;;;;2596566;52;20969;-63
2021/04/08 12:50:37;;;;;;;3.37;1.40;;;16.90;33.10;;;;;;2609498;52;21016;-64
2021/04/08 12:53:06;;;;;;;6.45;1.95;;;16.80;33.20;;;;;;2619304;52;20988;-64
2021/04/08 12:55:36;;;;;;;4.75;1.65;;;16.80;33.30;;;;;;2367305;53;21616;-64
2021/04/08 12:58:06;;;;;;;3.67;1.80;;;16.80;33.60;;;;;;2368067;53;20918;-64
2021/04/08 13:00:32;;;;;;;3.12;1.40;;;16.90;33.80;;;;;;2365088;53;20905;-64
2021/04/08 13:02:58;;;;;;;3.67;1.37;;;16.90;33.90;;;;;;2618983;52;21404;-64
2021/04/08 13:05:26;;;;;;;3.20;1.50;;;16.90;33.70;;;;;;2351128;54;20968;-64
2021/04/08 13:07:52;;;;;;;3.03;1.27;;;17.00;33.70;;;;;;2363194;53;20990;-64
2021/04/08 13:10:19;;;;;;;3.55;1.45;;;16.90;33.40;;;;;;2356040;53;20948;-64